Time;durP1;ratioP1;P1;durP2;ratioP2;P2;SDS_P1;SDS_P2;PMS_P1;PMS_P2;Temp;Humidity;BMP_temperature;BMP_pressure;BME280_temperature;BME280_humidity;BME280_pressure;Samples;Min_cycle;Max_cycle;Signal;HPM_P1;HPM_P2
2022/11/10 00:00:37;;;;;;;;;17.75;15.75;;;;;;;;5105744;27;11537;-78
2022/11/10 00:03:06;;;;;;;;;17.25;15.25;;;;;;;;5130153;27;12261;-80
2022/11/10 00:05:34;;;;;;;;;14.00;14.00;;;;;;;;5131745;27;11500;-81
2022/11/10 00:08:04;;;;;;;;;11.75;11.50;;;;;;;;5112429;27;11374;-78
2022/11/10 00:10:55;;;;;;;;;15.50;13.00;;;;;;;;5131128;27;11433;-78
2022/11/10 00:13:21;;;;;;;;;11.50;8.25;;;;;;;;5118150;27;11436;-78
2022/11/10 00:18:33;;;;;;;;;9.25;9.25;;;;;;;;5100502;27;12198;-78
2022/11/10 00:21:06;;;;;;;;;8.75;8.75;;;;;;;;5131917;27;11428;-79
2022/11/10 00:23:34;;;;;;;;;7.00;7.00;;;;;;;;5129337;27;13136;-78
2022/11/10 00:26:03;;;;;;;;;12.00;8.00;;;;;;;;5132644;27;11375;-79
2022/11/10 00:28:32;;;;;;;;;12.25;12.25;;;;;;;;5113963;27;11376;-80
2022/11/10 00:30:59;;;;;;;;;7.75;7.75;;;;;;;;5126453;27;11674;-80
2022/11/10 00:33:27;;;;;;;;;14.75;14.50;;;;;;;;5126025;27;11372;-80
2022/11/10 00:35:55;;;;;;;;;19.00;14.00;;;;;;;;5108019;27;11503;-80
2022/11/10 00:38:22;;;;;;;;;20.00;14.50;;;;;;;;5107839;27;12182;-80
2022/11/10 00:40:50;;;;;;;;;16.50;14.00;;;;;;;;5129599;27;11644;-80
2022/11/10 00:43:19;;;;;;;;;19.75;18.00;;;;;;;;5109606;27;11445;-78
2022/11/10 00:45:49;;;;;;;;;17.50;15.25;;;;;;;;5131614;27;11505;-79
2022/11/10 00:48:16;;;;;;;;;17.25;14.75;;;;;;;;5126428;27;11442;-80
2022/11/10 00:50:45;;;;;;;;;13.25;13.00;;;;;;;;5084968;27;12311;-80
2022/11/10 00:53:12;;;;;;;;;19.75;16.00;;;;;;;;5122749;27;11493;-80
2022/11/10 00:55:41;;;;;;;;;15.00;12.25;;;;;;;;5126311;27;11579;-79
2022/11/10 00:58:08;;;;;;;;;13.75;13.75;;;;;;;;5106795;27;11542;-79
2022/11/10 01:00:38;;;;;;;;;19.75;15.00;;;;;;;;5122780;27;12536;-79
2022/11/10 01:03:05;;;;;;;;;14.50;12.00;;;;;;;;5128000;27;11468;-79
2022/11/10 01:05:35;;;;;;;;;12.75;12.75;;;;;;;;5128564;27;11437;-78
2022/11/10 01:08:03;;;;;;;;;15.50;15.50;;;;;;;;5132032;27;11459;-79
2022/11/10 01:10:33;;;;;;;;;15.50;14.00;;;;;;;;5130087;27;11558;-78
2022/11/10 01:13:01;;;;;;;;;11.25;11.25;;;;;;;;5106899;27;11522;-79
2022/11/10 01:15:28;;;;;;;;;9.75;9.75;;;;;;;;5126772;27;11468;-78
2022/11/10 01:17:57;;;;;;;;;17.00;14.50;;;;;;;;5125414;27;11474;-79
2022/11/10 01:20:25;;;;;;;;;12.00;12.00;;;;;;;;5110942;27;11481;-79
2022/11/10 01:22:53;;;;;;;;;10.00;10.00;;;;;;;;5130232;27;11464;-78
2022/11/10 01:25:21;;;;;;;;;9.00;8.25;;;;;;;;5097781;27;11400;-79
2022/11/10 01:27:49;;;;;;;;;9.00;9.00;;;;;;;;5125767;27;11434;-79
2022/11/10 01:30:16;;;;;;;;;12.00;11.25;;;;;;;;5126904;27;11437;-80
2022/11/10 01:32:44;;;;;;;;;8.00;7.00;;;;;;;;5128797;27;11476;-79
2022/11/10 01:35:13;;;;;;;;;10.25;8.75;;;;;;;;5127433;27;11518;-79
2022/11/10 01:37:41;;;;;;;;;14.50;11.50;;;;;;;;5129815;27;11535;-78
2022/11/10 01:40:10;;;;;;;;;7.50;7.50;;;;;;;;5091961;27;11483;-78
2022/11/10 01:42:52;;;;;;;;;11.75;9.00;;;;;;;;5105736;27;11433;-78
2022/11/10 01:45:45;;;;;;;;;10.00;10.00;;;;;;;;5127760;27;11430;-78
2022/11/10 01:48:18;;;;;;;;;8.50;6.50;;;;;;;;5128973;27;11482;-78
2022/11/10 01:50:48;;;;;;;;;8.00;8.00;;;;;;;;5101067;27;11407;-79
2022/11/10 01:53:20;;;;;;;;;7.00;7.00;;;;;;;;5117675;27;11351;-78
2022/11/10 01:55:49;;;;;;;;;12.00;8.75;;;;;;;;5124465;27;11388;-78
2022/11/10 01:58:19;;;;;;;;;8.50;8.50;;;;;;;;5129008;27;11503;-78
2022/11/10 02:00:47;;;;;;;;;8.00;8.00;;;;;;;;5130649;27;11360;-78
2022/11/10 02:03:19;;;;;;;;;6.50;6.50;;;;;;;;5130930;27;11438;-78
2022/11/10 02:05:51;;;;;;;;;8.25;8.00;;;;;;;;5126330;27;11393;-78
2022/11/10 02:08:20;;;;;;;;;8.00;8.00;;;;;;;;5129300;27;11586;-78
2022/11/10 02:10:47;;;;;;;;;6.50;6.50;;;;;;;;5094397;27;11338;-79
2022/11/10 02:13:15;;;;;;;;;7.50;7.50;;;;;;;;5129287;27;11526;-79
2022/11/10 02:15:43;;;;;;;;;8.00;8.00;;;;;;;;5108781;27;11506;-79
2022/11/10 02:18:10;;;;;;;;;8.75;8.75;;;;;;;;5130153;27;12312;-79
2022/11/10 02:20:38;;;;;;;;;7.00;7.00;;;;;;;;5131548;27;11444;-80
2022/11/10 02:23:15;;;;;;;;;7.75;7.75;;;;;;;;5134030;27;11446;-79
2022/11/10 02:25:43;;;;;;;;;6.00;6.00;;;;;;;;5132438;27;12222;-78
2022/11/10 02:28:13;;;;;;;;;7.00;7.00;;;;;;;;5129377;27;11347;-79
2022/11/10 02:30:41;;;;;;;;;8.50;6.75;;;;;;;;5129569;27;12728;-79
2022/11/10 02:33:08;;;;;;;;;7.50;7.50;;;;;;;;5106099;27;11631;-78
2022/11/10 02:35:36;;;;;;;;;9.00;8.00;;;;;;;;5093066;27;11464;-79
2022/11/10 02:38:06;;;;;;;;;9.25;7.75;;;;;;;;5142501;27;11475;-78
2022/11/10 02:40:35;;;;;;;;;8.00;8.00;;;;;;;;5129100;27;11399;-78
2022/11/10 02:43:03;;;;;;;;;7.25;7.25;;;;;;;;5102737;27;11458;-79
2022/11/10 02:45:32;;;;;;;;;3.00;3.00;;;;;;;;5128990;27;11624;-79
2022/11/10 02:47:59;;;;;;;;;14.25;13.00;;;;;;;;5125827;27;12357;-79
2022/11/10 02:50:27;;;;;;;;;11.00;8.75;;;;;;;;5107662;27;11580;-79
2022/11/10 02:52:55;;;;;;;;;8.75;8.75;;;;;;;;5128757;27;11458;-80
2022/11/10 02:55:22;;;;;;;;;12.00;11.00;;;;;;;;5129664;27;11505;-78
2022/11/10 02:57:51;;;;;;;;;12.75;10.75;;;;;;;;5121467;27;11502;-79
2022/11/10 03:00:19;;;;;;;;;7.00;7.00;;;;;;;;5109383;27;12293;-79
2022/11/10 03:02:47;;;;;;;;;8.50;8.50;;;;;;;;5107868;27;11411;-80
2022/11/10 03:05:15;;;;;;;;;12.50;10.50;;;;;;;;5129504;27;11448;-80
2022/11/10 03:07:42;;;;;;;;;11.25;11.00;;;;;;;;5125696;27;11452;-79
2022/11/10 03:10:10;;;;;;;;;10.75;8.00;;;;;;;;5128014;27;11569;-79
2022/11/10 03:12:39;;;;;;;;;10.25;10.25;;;;;;;;5125313;27;11452;-79
2022/11/10 03:15:11;;;;;;;;;13.75;12.50;;;;;;;;5087891;27;11563;-79
2022/11/10 03:17:39;;;;;;;;;15.00;12.50;;;;;;;;5121010;27;12303;-79
2022/11/10 03:20:07;;;;;;;;;13.50;9.50;;;;;;;;5125787;27;11445;-80
2022/11/10 03:22:35;;;;;;;;;11.00;8.25;;;;;;;;5122386;27;11566;-80
2022/11/10 03:25:03;;;;;;;;;12.25;10.25;;;;;;;;5121481;27;11467;-79
2022/11/10 03:27:30;;;;;;;;;1.00;1.00;;;;;;;;5126918;27;11409;-78
2022/11/10 03:29:58;;;;;;;;;10.50;7.50;;;;;;;;5126885;27;11449;-79
2022/11/10 03:32:27;;;;;;;;;11.25;9.00;;;;;;;;5104334;27;11474;-79
2022/11/10 03:34:55;;;;;;;;;6.50;6.50;;;;;;;;5103882;27;11563;-79
2022/11/10 03:37:22;;;;;;;;;11.25;8.00;;;;;;;;5119562;27;11643;-78
2022/11/10 03:39:50;;;;;;;;;8.00;8.00;;;;;;;;5127106;27;11545;-79
2022/11/10 03:42:19;;;;;;;;;11.25;11.25;;;;;;;;5124027;27;11520;-79
2022/11/10 03:44:47;;;;;;;;;7.75;7.25;;;;;;;;5123996;27;11572;-78
2022/11/10 03:47:14;;;;;;;;;7.00;7.00;;;;;;;;5125097;27;11624;-79
2022/11/10 03:49:44;;;;;;;;;6.00;6.00;;;;;;;;5104652;27;12118;-79
2022/11/10 03:52:11;;;;;;;;;10.00;10.00;;;;;;;;5089397;27;12275;-80
2022/11/10 03:54:38;;;;;;;;;8.00;8.00;;;;;;;;5108423;27;11428;-78
2022/11/10 03:57:07;;;;;;;;;10.75;8.75;;;;;;;;5128242;27;11478;-79
2022/11/10 03:59:35;;;;;;;;;7.75;6.00;;;;;;;;5091363;27;11449;-79
2022/11/10 04:02:02;;;;;;;;;5.25;5.25;;;;;;;;5125234;27;11475;-79
2022/11/10 04:10:15;;;;;;;;;9.00;9.00;;;;;;;;5062168;28;11560;-79
2022/11/10 04:15:42;;;;;;;;;7.25;7.25;;;;;;;;5126998;27;11447;-79
2022/11/10 04:18:28;;;;;;;;;7.00;6.00;;;;;;;;5126243;27;11482;-78
2022/11/10 04:20:57;;;;;;;;;7.50;7.00;;;;;;;;5123778;27;11466;-78
2022/11/10 04:23:27;;;;;;;;;7.50;7.50;;;;;;;;5103587;27;11462;-79
2022/11/10 04:28:45;;;;;;;;;10.25;7.25;;;;;;;;5106323;27;11496;-79
2022/11/10 04:31:14;;;;;;;;;14.75;8.00;;;;;;;;5127943;27;11468;-78
2022/11/10 04:33:42;;;;;;;;;9.00;9.00;;;;;;;;5127231;27;11453;-78
2022/11/10 04:36:11;;;;;;;;;8.25;8.25;;;;;;;;5128262;27;11513;-79
2022/11/10 04:38:41;;;;;;;;;11.50;7.00;;;;;;;;5135095;27;11484;-78
2022/11/10 04:41:09;;;;;;;;;9.25;7.00;;;;;;;;5128829;27;11491;-79
2022/11/10 04:43:37;;;;;;;;;7.00;7.00;;;;;;;;5126841;27;11512;-79
2022/11/10 04:46:05;;;;;;;;;9.50;9.50;;;;;;;;5127916;27;11572;-79
2022/11/10 04:48:36;;;;;;;;;10.75;10.25;;;;;;;;5127497;27;11474;-79
2022/11/10 04:51:04;;;;;;;;;6.25;5.75;;;;;;;;5113039;27;11488;-79
2022/11/10 04:53:35;;;;;;;;;8.00;8.00;;;;;;;;5128687;27;11501;-79
2022/11/10 04:56:04;;;;;;;;;7.50;6.00;;;;;;;;5124024;27;11611;-79
2022/11/10 04:58:32;;;;;;;;;6.00;6.00;;;;;;;;5123162;27;11609;-79
2022/11/10 05:01:00;;;;;;;;;7.00;7.00;;;;;;;;5126300;27;11412;-80
2022/11/10 05:03:28;;;;;;;;;5.00;5.00;;;;;;;;5107389;27;11503;-80
2022/11/10 05:05:56;;;;;;;;;6.00;6.00;;;;;;;;5107543;27;11534;-79
2022/11/10 05:08:23;;;;;;;;;4.50;3.50;;;;;;;;5133649;27;11664;-80
2022/11/10 05:10:51;;;;;;;;;8.50;6.50;;;;;;;;5125292;27;11633;-79
2022/11/10 05:13:20;;;;;;;;;7.50;6.75;;;;;;;;5127513;27;11405;-77
2022/11/10 05:15:47;;;;;;;;;10.75;7.00;;;;;;;;5123610;27;11485;-80
2022/11/10 05:18:15;;;;;;;;;6.00;6.00;;;;;;;;5128783;27;11507;-77
2022/11/10 05:20:42;;;;;;;;;5.50;5.50;;;;;;;;5127875;27;11520;-77
2022/11/10 05:25:55;;;;;;;;;10.00;7.00;;;;;;;;5125089;27;12166;-79
2022/11/10 05:28:24;;;;;;;;;8.25;6.00;;;;;;;;5129845;27;11494;-78
2022/11/10 05:30:52;;;;;;;;;8.25;6.25;;;;;;;;5126396;27;11557;-77
2022/11/10 05:33:20;;;;;;;;;8.50;8.50;;;;;;;;5123357;27;11459;-77
2022/11/10 05:35:49;;;;;;;;;10.00;6.00;;;;;;;;5126658;27;11500;-79
2022/11/10 05:38:17;;;;;;;;;9.50;7.00;;;;;;;;5127940;27;11487;-77
2022/11/10 05:40:44;;;;;;;;;10.50;7.50;;;;;;;;5111714;27;11517;-77
2022/11/10 05:43:12;;;;;;;;;10.00;8.00;;;;;;;;5126935;27;11518;-77
2022/11/10 05:45:42;;;;;;;;;11.00;8.25;;;;;;;;5111674;27;11483;-78
2022/11/10 05:48:10;;;;;;;;;11.00;9.50;;;;;;;;5130856;27;11486;-80
2022/11/10 05:50:39;;;;;;;;;8.75;8.75;;;;;;;;5131885;27;11617;-78
2022/11/10 05:53:06;;;;;;;;;11.00;9.50;;;;;;;;5116881;27;12386;-81
2022/11/10 05:55:34;;;;;;;;;15.00;15.00;;;;;;;;5128964;27;11484;-78
2022/11/10 05:58:01;;;;;;;;;16.25;15.00;;;;;;;;5106405;27;11545;-77
2022/11/10 06:00:31;;;;;;;;;21.25;19.50;;;;;;;;5107259;27;11647;-79
2022/11/10 06:03:06;;;;;;;;;27.00;25.25;;;;;;;;5106515;27;11615;-78
2022/11/10 06:05:36;;;;;;;;;19.75;19.75;;;;;;;;5104812;27;11545;-79
2022/11/10 06:08:05;;;;;;;;;24.75;22.00;;;;;;;;5127435;27;11671;-78
2022/11/10 06:10:33;;;;;;;;;24.50;23.00;;;;;;;;5127238;27;11508;-80
2022/11/10 06:13:00;;;;;;;;;25.50;21.75;;;;;;;;5122016;27;11678;-78
2022/11/10 06:15:29;;;;;;;;;16.00;16.00;;;;;;;;5121504;27;12334;-78
2022/11/10 06:17:56;;;;;;;;;22.50;20.25;;;;;;;;5126401;27;11447;-79
2022/11/10 06:20:26;;;;;;;;;22.25;22.25;;;;;;;;5125465;27;11489;-79
2022/11/10 06:23:02;;;;;;;;;27.50;24.50;;;;;;;;5121003;27;11985;-78
2022/11/10 06:25:33;;;;;;;;;30.75;28.00;;;;;;;;5125108;27;11529;-79
2022/11/10 06:28:01;;;;;;;;;23.75;23.75;;;;;;;;5128160;27;11508;-78
2022/11/10 06:30:30;;;;;;;;;24.00;24.00;;;;;;;;5123795;27;11628;-79
2022/11/10 06:32:58;;;;;;;;;20.75;19.50;;;;;;;;5125705;27;11462;-79
2022/11/10 06:35:27;;;;;;;;;23.50;20.75;;;;;;;;5125556;27;11522;-79
2022/11/10 06:37:59;;;;;;;;;28.00;24.25;;;;;;;;5103956;27;12628;-83
2022/11/10 06:40:30;;;;;;;;;22.00;19.00;;;;;;;;5124874;27;12231;-78
2022/11/10 06:42:58;;;;;;;;;20.75;20.50;;;;;;;;5125496;27;11569;-80
2022/11/10 06:45:27;;;;;;;;;20.00;20.00;;;;;;;;5127852;27;12368;-78
2022/11/10 06:48:05;;;;;;;;;26.00;20.50;;;;;;;;5129759;27;11503;-79
2022/11/10 06:50:34;;;;;;;;;21.00;18.00;;;;;;;;5126382;27;11696;-77
2022/11/10 06:53:03;;;;;;;;;11.50;11.50;;;;;;;;5130657;27;11578;-78
2022/11/10 06:55:30;;;;;;;;;22.50;20.50;;;;;;;;5127450;27;12167;-78
2022/11/10 06:57:59;;;;;;;;;14.25;13.75;;;;;;;;5127503;27;11530;-78
2022/11/10 07:00:27;;;;;;;;;23.75;22.00;;;;;;;;5125723;27;11453;-79
2022/11/10 07:03:02;;;;;;;;;16.75;15.00;;;;;;;;5125393;27;11560;-78
2022/11/10 07:05:30;;;;;;;;;20.00;17.00;;;;;;;;5124520;27;11435;-78
2022/11/10 07:08:03;;;;;;;;;18.50;16.50;;;;;;;;5110034;27;11460;-79
2022/11/10 07:10:30;;;;;;;;;19.25;17.50;;;;;;;;5126795;27;11518;-79
2022/11/10 07:12:58;;;;;;;;;18.25;18.25;;;;;;;;5124368;27;11480;-78
2022/11/10 07:15:26;;;;;;;;;18.00;18.00;;;;;;;;5121767;27;11620;-78
2022/11/10 07:17:54;;;;;;;;;23.00;20.00;;;;;;;;5140268;27;11506;-80
2022/11/10 07:20:24;;;;;;;;;19.75;19.75;;;;;;;;5116410;27;11441;-81
2022/11/10 07:23:00;;;;;;;;;17.50;17.50;;;;;;;;5125206;27;11478;-79
2022/11/10 07:25:28;;;;;;;;;27.50;25.00;;;;;;;;5129698;27;11492;-78
2022/11/10 07:27:55;;;;;;;;;20.50;20.50;;;;;;;;5122490;27;11441;-76
2022/11/10 07:30:28;;;;;;;;;22.50;17.50;;;;;;;;5116411;27;12442;-76
2022/11/10 07:33:02;;;;;;;;;22.50;17.75;;;;;;;;5126789;27;11568;-78
2022/11/10 07:35:30;;;;;;;;;23.50;21.00;;;;;;;;5109382;27;11472;-80
2022/11/10 07:38:02;;;;;;;;;21.00;19.00;;;;;;;;5118721;27;11457;-83
2022/11/10 07:40:30;;;;;;;;;15.75;15.75;;;;;;;;5099607;27;11494;-79
2022/11/10 07:42:57;;;;;;;;;27.00;25.00;;;;;;;;5120273;27;11390;-80
2022/11/10 07:45:25;;;;;;;;;29.00;26.50;;;;;;;;5119823;27;11505;-81
2022/11/10 07:47:54;;;;;;;;;21.75;20.50;;;;;;;;5104890;27;11387;-81
2022/11/10 07:50:21;;;;;;;;;26.00;23.50;;;;;;;;5119399;27;11501;-77
2022/11/10 07:52:49;;;;;;;;;19.25;18.75;;;;;;;;5099747;27;11464;-76
2022/11/10 07:55:18;;;;;;;;;22.00;19.50;;;;;;;;5120359;27;11499;-77
2022/11/10 07:57:45;;;;;;;;;15.75;15.50;;;;;;;;5100635;27;11389;-73
2022/11/10 08:00:15;;;;;;;;;21.25;18.00;;;;;;;;5120844;27;11577;-75
2022/11/10 08:02:42;;;;;;;;;18.75;18.75;;;;;;;;5095274;27;12270;-77
2022/11/10 08:05:10;;;;;;;;;17.00;15.25;;;;;;;;5118609;27;12239;-77
2022/11/10 08:07:37;;;;;;;;;17.25;15.75;;;;;;;;5117128;27;11376;-77
2022/11/10 08:10:06;;;;;;;;;16.00;16.00;;;;;;;;5104625;27;12321;-77
2022/11/10 08:12:38;;;;;;;;;18.75;14.75;;;;;;;;5121048;27;12256;-79
2022/11/10 08:15:06;;;;;;;;;20.00;18.50;;;;;;;;5121309;27;11398;-77
2022/11/10 08:17:34;;;;;;;;;20.25;18.00;;;;;;;;5101668;27;11489;-76
2022/11/10 08:20:03;;;;;;;;;18.50;18.25;;;;;;;;5101488;27;11470;-79
2022/11/10 08:22:31;;;;;;;;;18.50;18.50;;;;;;;;5121815;27;11647;-77
2022/11/10 08:24:59;;;;;;;;;21.25;20.50;;;;;;;;5106877;27;11530;-77
2022/11/10 08:27:27;;;;;;;;;19.25;19.00;;;;;;;;5104244;27;11519;-77
2022/11/10 08:29:55;;;;;;;;;13.50;13.50;;;;;;;;5104784;27;11522;-78
2022/11/10 08:32:23;;;;;;;;;14.75;14.75;;;;;;;;5124937;27;12244;-75
2022/11/10 08:34:51;;;;;;;;;23.25;23.25;;;;;;;;5117840;27;11476;-77
2022/11/10 08:37:18;;;;;;;;;19.25;18.75;;;;;;;;5098836;27;11476;-76
2022/11/10 08:39:46;;;;;;;;;20.50;18.50;;;;;;;;5121991;27;11512;-79
2022/11/10 08:42:14;;;;;;;;;26.00;21.75;;;;;;;;5105029;27;11505;-79
2022/11/10 08:44:41;;;;;;;;;27.75;24.25;;;;;;;;5124632;27;11503;-77
2022/11/10 08:47:10;;;;;;;;;24.75;22.25;;;;;;;;5121520;27;11530;-78
2022/11/10 08:49:38;;;;;;;;;23.25;20.75;;;;;;;;5098212;27;11501;-78
2022/11/10 08:52:05;;;;;;;;;28.00;21.25;;;;;;;;5120962;27;11488;-79
2022/11/10 08:54:35;;;;;;;;;20.00;19.00;;;;;;;;5122087;27;11432;-79
2022/11/10 08:57:03;;;;;;;;;21.50;21.00;;;;;;;;5117242;27;11420;-77
2022/11/10 08:59:33;;;;;;;;;17.50;17.50;;;;;;;;5122021;27;11535;-78
2022/11/10 09:02:00;;;;;;;;;21.50;19.75;;;;;;;;5123441;27;11507;-79
2022/11/10 09:04:30;;;;;;;;;22.00;22.00;;;;;;;;5105127;27;11570;-75
2022/11/10 09:06:57;;;;;;;;;20.00;20.00;;;;;;;;5102083;27;11585;-77
2022/11/10 09:09:25;;;;;;;;;26.25;20.75;;;;;;;;5125805;27;11573;-77
2022/11/10 09:11:54;;;;;;;;;21.50;18.50;;;;;;;;5122440;27;11456;-79
2022/11/10 09:14:23;;;;;;;;;25.75;21.75;;;;;;;;5122777;27;11463;-77
2022/11/10 09:16:51;;;;;;;;;20.50;19.00;;;;;;;;5118904;27;11514;-74
2022/11/10 09:19:18;;;;;;;;;19.50;16.00;;;;;;;;5104132;27;11001;-76
2022/11/10 09:21:47;;;;;;;;;16.75;16.50;;;;;;;;5118259;27;11085;-75
2022/11/10 09:24:15;;;;;;;;;23.25;21.00;;;;;;;;5121333;27;10995;-75
2022/11/10 09:26:46;;;;;;;;;24.50;19.25;;;;;;;;5102959;27;11051;-75
2022/11/10 09:29:14;;;;;;;;;21.25;17.00;;;;;;;;5100393;27;11097;-75
2022/11/10 09:31:44;;;;;;;;;21.75;20.00;;;;;;;;5120486;27;11034;-74
2022/11/10 09:34:11;;;;;;;;;17.50;16.00;;;;;;;;5115875;27;10856;-76
2022/11/10 09:36:39;;;;;;;;;19.25;17.25;;;;;;;;5119207;27;10933;-74
2022/11/10 09:39:09;;;;;;;;;24.00;20.00;;;;;;;;5121007;27;10480;-75
2022/11/10 09:41:40;;;;;;;;;17.75;16.75;;;;;;;;5120238;27;10603;-76
2022/11/10 09:44:15;;;;;;;;;17.25;16.00;;;;;;;;5098044;27;10653;-77
2022/11/10 09:46:44;;;;;;;;;18.50;17.00;;;;;;;;5116601;27;10352;-76
2022/11/10 09:49:23;;;;;;;;;17.00;17.00;;;;;;;;5123088;27;10156;-75
2022/11/10 09:51:52;;;;;;;;;17.50;16.25;;;;;;;;5114420;27;10157;-77
2022/11/10 09:54:32;;;;;;;;;15.75;15.75;;;;;;;;5118481;27;10044;-76
2022/11/10 09:57:00;;;;;;;;;19.00;17.00;;;;;;;;5102007;27;10135;-77
2022/11/10 09:59:31;;;;;;;;;12.00;12.00;;;;;;;;5120100;27;10020;-77
2022/11/10 10:02:01;;;;;;;;;17.50;17.50;;;;;;;;5120948;27;9863;-76
2022/11/10 10:04:39;;;;;;;;;13.50;12.25;;;;;;;;5123482;27;9886;-76
2022/11/10 10:07:11;;;;;;;;;13.75;13.75;;;;;;;;5127213;27;9782;-75
2022/11/10 10:09:48;;;;;;;;;19.75;15.50;;;;;;;;5126706;27;10395;-76
2022/11/10 10:12:26;;;;;;;;;14.25;13.00;;;;;;;;5126728;27;9570;-77
2022/11/10 10:15:11;;;;;;;;;11.00;11.00;;;;;;;;5107855;27;10621;-78
2022/11/10 10:17:42;;;;;;;;;14.33;12.33;;;;;;;;5125303;27;9372;-75
2022/11/10 10:20:14;;;;;;;;;10.67;10.67;;;;;;;;5138434;27;9235;-77
2022/11/10 10:22:53;;;;;;;;;15.33;13.33;;;;;;;;5105936;27;9056;-77
2022/11/10 10:25:25;;;;;;;;;15.67;15.67;;;;;;;;5122817;27;9111;-78
2022/11/10 10:28:00;;;;;;;;;14.75;12.00;;;;;;;;5127240;27;8942;-77
2022/11/10 10:30:27;;;;;;;;;13.67;12.33;;;;;;;;5127013;27;8900;-76
2022/11/10 10:33:00;;;;;;;;;15.00;11.75;;;;;;;;5126653;27;9055;-75
2022/11/10 10:35:32;;;;;;;;;12.00;11.00;;;;;;;;5126683;27;8878;-75
2022/11/10 10:38:00;;;;;;;;;10.75;10.00;;;;;;;;5127124;27;9645;-75
2022/11/10 10:40:29;;;;;;;;;9.00;9.00;;;;;;;;5130140;27;9601;-76
2022/11/10 10:42:58;;;;;;;;;11.00;10.00;;;;;;;;5127715;27;8970;-76
2022/11/10 10:45:28;;;;;;;;;8.50;8.50;;;;;;;;5106968;27;8862;-75
2022/11/10 10:47:58;;;;;;;;;9.25;9.25;;;;;;;;5121450;27;8804;-75
2022/11/10 10:50:28;;;;;;;;;12.00;8.50;;;;;;;;5125089;27;8835;-76
2022/11/10 10:53:18;;;;;;;;;10.00;10.00;;;;;;;;5124276;27;8851;-75
2022/11/10 10:56:02;;;;;;;;;7.75;6.75;;;;;;;;5117590;27;8842;-73
2022/11/10 10:58:32;;;;;;;;;6.50;6.50;;;;;;;;5103482;27;8958;-74
2022/11/10 11:01:04;;;;;;;;;9.50;7.00;;;;;;;;5097237;27;8976;-73
2022/11/10 11:03:40;;;;;;;;;9.75;7.00;;;;;;;;5123017;27;8840;-73
2022/11/10 11:06:19;;;;;;;;;2.00;2.00;;;;;;;;5121331;27;8864;-73
2022/11/10 11:08:58;;;;;;;;;5.00;5.00;;;;;;;;5119179;27;8852;-74
2022/11/10 11:11:30;;;;;;;;;6.50;5.75;;;;;;;;5122255;27;8828;-74
2022/11/10 11:14:21;;;;;;;;;7.75;7.75;;;;;;;;5121172;27;9641;-73
2022/11/10 11:16:50;;;;;;;;;9.50;9.50;;;;;;;;5124133;27;8842;-73
2022/11/10 11:19:20;;;;;;;;;11.00;8.00;;;;;;;;5123261;27;8878;-73
2022/11/10 11:22:03;;;;;;;;;11.25;9.00;;;;;;;;5121568;27;8864;-73
2022/11/10 11:24:38;;;;;;;;;9.50;7.25;;;;;;;;5108827;27;8982;-73
2022/11/10 11:27:14;;;;;;;;;12.50;10.00;;;;;;;;5123074;27;8843;-74
2022/11/10 11:30:11;;;;;;;;;10.25;10.25;;;;;;;;5119490;27;8836;-74
2022/11/10 11:32:57;;;;;;;;;11.00;8.00;;;;;;;;5117021;27;8883;-74
2022/11/10 11:35:30;;;;;;;;;11.50;8.25;;;;;;;;5129067;27;8852;-73
2022/11/10 11:38:06;;;;;;;;;13.25;13.25;;;;;;;;5114480;27;8920;-72
2022/11/10 11:40:48;;;;;;;;;14.00;14.00;;;;;;;;5122192;27;8858;-74
2022/11/10 11:43:28;;;;;;;;;16.00;13.75;;;;;;;;5077681;27;8838;-74
2022/11/10 11:46:00;;;;;;;;;14.75;14.75;;;;;;;;5122321;27;8852;-74
2022/11/10 11:48:44;;;;;;;;;14.00;14.00;;;;;;;;5120434;27;8803;-74
2022/11/10 11:51:16;;;;;;;;;14.00;14.00;;;;;;;;5089086;27;8838;-74
2022/11/10 11:53:55;;;;;;;;;16.00;16.00;;;;;;;;5099804;27;8898;-78
2022/11/10 11:56:26;;;;;;;;;16.00;15.25;;;;;;;;5095422;27;8832;-77
2022/11/10 11:59:04;;;;;;;;;12.00;11.00;;;;;;;;5121353;27;8848;-77
2022/11/10 12:01:49;;;;;;;;;10.00;10.00;;;;;;;;5121143;27;9614;-76
2022/11/10 12:04:31;;;;;;;;;20.75;16.00;;;;;;;;5100493;27;8840;-77
2022/11/10 12:07:09;;;;;;;;;16.00;16.00;;;;;;;;5115275;27;9566;-77
2022/11/10 12:09:43;;;;;;;;;15.25;15.25;;;;;;;;5122818;27;8831;-77
2022/11/10 12:12:36;;;;;;;;;14.25;13.00;;;;;;;;5122849;27;8994;-78
2022/11/10 12:15:15;;;;;;;;;24.25;21.25;;;;;;;;5119210;27;8872;-76
2022/11/10 12:17:48;;;;;;;;;19.50;17.25;;;;;;;;5119180;27;8874;-76
2022/11/10 12:20:26;;;;;;;;;20.75;20.75;;;;;;;;5097318;27;8842;-77
2022/11/10 12:22:59;;;;;;;;;22.00;22.00;;;;;;;;5125357;27;8879;-76
2022/11/10 12:25:30;;;;;;;;;19.75;19.25;;;;;;;;5105605;27;8826;-78
2022/11/10 12:28:04;;;;;;;;;19.00;17.50;;;;;;;;5086587;27;8856;-77
2022/11/10 12:30:34;;;;;;;;;16.25;16.25;;;;;;;;5119527;27;8895;-79
2022/11/10 12:33:05;;;;;;;;;18.25;18.00;;;;;;;;5119564;27;8890;-78
2022/11/10 12:35:37;;;;;;;;;18.00;17.25;;;;;;;;5120592;27;9000;-78
2022/11/10 12:38:08;;;;;;;;;20.75;20.75;;;;;;;;5123443;27;8912;-76
2022/11/10 12:40:40;;;;;;;;;20.00;17.50;;;;;;;;5120392;27;9613;-76
2022/11/10 12:43:11;;;;;;;;;19.25;18.00;;;;;;;;5122317;27;8932;-76
2022/11/10 12:45:44;;;;;;;;;19.75;16.25;;;;;;;;5122360;27;8834;-74
2022/11/10 12:48:14;;;;;;;;;23.00;20.00;;;;;;;;5121852;27;8835;-75
2022/11/10 12:50:48;;;;;;;;;21.75;17.75;;;;;;;;5119289;27;8832;-74
2022/11/10 12:53:21;;;;;;;;;20.75;19.00;;;;;;;;5130718;27;8848;-74
2022/11/10 12:55:53;;;;;;;;;17.00;16.75;;;;;;;;5119927;27;8889;-73
2022/11/10 12:58:21;;;;;;;;;23.00;20.75;;;;;;;;5119262;27;8994;-73
2022/11/10 13:00:59;;;;;;;;;22.25;20.00;;;;;;;;5099254;27;8956;-73
2022/11/10 13:03:30;;;;;;;;;15.75;15.75;;;;;;;;5123933;27;8852;-73
2022/11/10 13:05:59;;;;;;;;;15.75;15.75;;;;;;;;5118712;27;8863;-73
2022/11/10 13:08:35;;;;;;;;;16.75;16.75;;;;;;;;5122317;27;8838;-74
2022/11/10 13:11:07;;;;;;;;;13.75;13.75;;;;;;;;5119013;27;8864;-74
2022/11/10 13:13:42;;;;;;;;;20.50;19.25;;;;;;;;5113765;27;8903;-74
2022/11/10 13:16:12;;;;;;;;;14.50;14.50;;;;;;;;5119652;27;8857;-74
2022/11/10 13:19:01;;;;;;;;;15.00;15.00;;;;;;;;5118474;27;8894;-73
2022/11/10 13:22:04;;;;;;;;;13.75;13.75;;;;;;;;5110733;27;8870;-75
2022/11/10 13:24:36;;;;;;;;;16.25;14.50;;;;;;;;5117710;27;8836;-74
2022/11/10 13:27:05;;;;;;;;;13.00;13.00;;;;;;;;5122133;27;8912;-75
2022/11/10 13:29:35;;;;;;;;;12.00;12.00;;;;;;;;5100095;27;8803;-75
2022/11/10 13:32:39;;;;;;;;;13.00;13.00;;;;;;;;5103267;27;8946;-79
2022/11/10 13:35:48;;;;;;;;;13.00;11.75;;;;;;;;5106888;27;8844;-80
2022/11/10 13:38:34;;;;;;;;;14.00;14.00;;;;;;;;5103779;27;8982;-77
2022/11/10 13:41:24;;;;;;;;;14.50;13.00;;;;;;;;5123677;27;8844;-78
2022/11/10 13:43:53;;;;;;;;;10.75;10.75;;;;;;;;5127236;27;9625;-77
2022/11/10 13:46:32;;;;;;;;;15.50;12.25;;;;;;;;5124548;27;8849;-75
2022/11/10 13:49:33;;;;;;;;;14.75;10.50;;;;;;;;5120110;27;8887;-77
2022/11/10 13:52:08;;;;;;;;;14.25;14.00;;;;;;;;5100330;27;8874;-75
2022/11/10 13:54:56;;;;;;;;;10.75;10.75;;;;;;;;5088404;27;8991;-75
2022/11/10 13:57:29;;;;;;;;;15.25;10.00;;;;;;;;5124105;27;8869;-74
2022/11/10 13:59:59;;;;;;;;;8.00;8.00;;;;;;;;5105875;27;8842;-73
2022/11/10 14:02:53;;;;;;;;;12.00;9.25;;;;;;;;5122859;27;8840;-73
2022/11/10 14:06:04;;;;;;;;;12.00;11.00;;;;;;;;5124045;27;9624;-73
2022/11/10 14:08:41;;;;;;;;;14.00;9.25;;;;;;;;5125785;27;8832;-73
2022/11/10 14:11:17;;;;;;;;;10.50;10.25;;;;;;;;5123898;27;8812;-74
2022/11/10 14:13:50;;;;;;;;;10.50;10.50;;;;;;;;5126594;27;8894;-74
2022/11/10 14:16:22;;;;;;;;;11.50;11.50;;;;;;;;5122942;27;8824;-74
2022/11/10 14:19:05;;;;;;;;;9.75;9.75;;;;;;;;5125828;27;9072;-73
2022/11/10 14:21:45;;;;;;;;;9.50;9.50;;;;;;;;5105547;27;8958;-74
2022/11/10 14:24:21;;;;;;;;;11.50;8.25;;;;;;;;5125880;27;8969;-73
2022/11/10 14:26:52;;;;;;;;;10.00;7.00;;;;;;;;5105144;27;8826;-73
2022/11/10 14:29:37;;;;;;;;;14.50;12.75;;;;;;;;5124578;27;8867;-73
2022/11/10 14:32:06;;;;;;;;;13.75;12.00;;;;;;;;5123919;27;8882;-73
2022/11/10 14:34:45;;;;;;;;;16.25;13.75;;;;;;;;5102078;27;8953;-74
2022/11/10 14:37:21;;;;;;;;;14.75;13.00;;;;;;;;5127221;27;8983;-73
2022/11/10 14:39:54;;;;;;;;;12.00;11.75;;;;;;;;5124156;27;8879;-74
2022/11/10 14:42:25;;;;;;;;;15.50;14.25;;;;;;;;5126961;27;8971;-73
2022/11/10 14:45:08;;;;;;;;;10.50;10.50;;;;;;;;5126348;27;8960;-74
2022/11/10 14:47:37;;;;;;;;;13.25;12.00;;;;;;;;5124077;27;8875;-73
2022/11/10 14:50:24;;;;;;;;;13.75;12.25;;;;;;;;5123257;27;8874;-73
2022/11/10 14:52:55;;;;;;;;;14.50;14.50;;;;;;;;5121273;27;8932;-73
2022/11/10 14:55:26;;;;;;;;;14.00;13.75;;;;;;;;5124527;27;8846;-74
2022/11/10 14:57:59;;;;;;;;;11.00;11.00;;;;;;;;5123226;27;8875;-74
2022/11/10 15:00:28;;;;;;;;;13.75;12.50;;;;;;;;5126560;27;8841;-74
2022/11/10 15:02:57;;;;;;;;;12.75;12.75;;;;;;;;5104657;27;9598;-74
2022/11/10 15:05:27;;;;;;;;;16.00;16.00;;;;;;;;5124396;27;8824;-73
2022/11/10 15:07:57;;;;;;;;;15.00;14.00;;;;;;;;5122086;27;8848;-74
2022/11/10 15:10:28;;;;;;;;;20.50;16.75;;;;;;;;5124944;27;8841;-74